Time;durP1;ratioP1;P1;durP2;ratioP2;P2;SDS_P1;SDS_P2;PMS_P1;PMS_P2;Temp;Humidity;BMP_temperature;BMP_pressure;BME280_temperature;BME280_humidity;BME280_pressure;Samples;Min_cycle;Max_cycle;Signal;HPM_P1;HPM_P2
2022/08/25 00:01:36;;;;;;;;;;;13.70;99.90;;;;;;5096368;28;19991;-68
2022/08/25 00:04:04;;;;;;;;;;;13.70;99.90;;;;;;5096123;28;20388;-68
2022/08/25 00:06:31;;;;;;;;;;;13.80;99.90;;;;;;5096230;28;19912;-69
2022/08/25 00:08:58;;;;;;;;;;;13.90;99.90;;;;;;5096312;28;19915;-69
2022/08/25 00:11:26;;;;;;;;;;;13.90;99.90;;;;;;5096163;28;19908;-69
2022/08/25 00:13:55;;;;;;;;;;;13.90;99.90;;;;;;5096143;28;20385;-69
2022/08/25 00:16:22;;;;;;;;;;;14.00;99.90;;;;;;5095870;28;20294;-68
2022/08/25 00:18:50;;;;;;;;;;;14.00;99.90;;;;;;5095897;28;19908;-68
2022/08/25 00:21:18;;;;;;;;;;;14.10;99.90;;;;;;5095809;28;19915;-68
2022/08/25 00:23:45;;;;;;;;;;;14.10;99.90;;;;;;5093445;28;19908;-68
2022/08/25 00:26:12;;;;;;;;;;;14.10;99.90;;;;;;5065606;28;20279;-68
2022/08/25 00:28:39;;;;;;;;;;;14.10;99.90;;;;;;5054792;28;19951;-68
2022/08/25 00:31:06;;;;;;;;;;;14.20;99.90;;;;;;5054745;28;20283;-69
2022/08/25 00:33:33;;;;;;;;;;;14.20;99.90;;;;;;5054688;28;19915;-68
2022/08/25 00:36:00;;;;;;;;;;;14.30;99.90;;;;;;5054701;28;19909;-67
2022/08/25 00:38:27;;;;;;;;;;;14.30;99.90;;;;;;5076409;28;19908;-68
2022/08/25 00:41:05;;;;;;;;;;;14.40;99.90;;;;;;5095484;28;19912;-68
2022/08/25 00:43:53;;;;;;;;;;;14.50;99.90;;;;;;5095659;28;19991;-67
2022/08/25 00:46:22;;;;;;;;;;;14.60;99.90;;;;;;5087558;28;20352;-68
2022/08/25 00:48:51;;;;;;;;;;;14.70;99.90;;;;;;5095399;28;20323;-68
2022/08/25 00:51:20;;;;;;;;;;;14.70;99.90;;;;;;5095372;28;19912;-68
2022/08/25 00:53:47;;;;;;;;;;;14.70;99.90;;;;;;5094160;28;19947;-68
2022/08/25 00:56:13;;;;;;;;;;;14.80;99.90;;;;;;5095074;28;19957;-67
2022/08/25 00:58:41;;;;;;;;;;;14.90;99.90;;;;;;5095465;28;19915;-67
2022/08/25 01:01:08;;;;;;;;;;;15.20;99.90;;;;;;5095098;28;19950;-69
2022/08/25 01:03:35;;;;;;;;;;;15.30;99.90;;;;;;5094820;28;19908;-69
2022/08/25 01:06:02;;;;;;;;;;;15.50;99.90;;;;;;5094694;28;20385;-69
2022/08/25 01:08:31;;;;;;;;;;;15.60;99.90;;;;;;5095038;28;19940;-69
2022/08/25 01:10:58;;;;;;;;;;;15.60;99.90;;;;;;5095055;28;19908;-70
2022/08/25 01:13:36;;;;;;;;;;;15.80;99.90;;;;;;5094854;28;19915;-70
2022/08/25 01:16:03;;;;;;;;;;;15.80;99.90;;;;;;5094526;28;19908;-70
2022/08/25 01:18:41;;;;;;;;;;;15.90;99.90;;;;;;5094835;28;19908;-68
2022/08/25 01:21:08;;;;;;;;;;;15.80;99.90;;;;;;5095027;28;20315;-70
2022/08/25 01:23:34;;;;;;;;;;;16.00;99.90;;;;;;5094774;28;19908;-69
2022/08/25 01:26:07;;;;;;;;;;;16.10;99.90;;;;;;5094488;28;19923;-68
2022/08/25 01:28:33;;;;;;;;;;;16.30;99.90;;;;;;5094662;28;20316;-69
2022/08/25 01:31:00;;;;;;;;;;;16.40;99.90;;;;;;5094618;28;20043;-69
2022/08/25 01:33:27;;;;;;;;;;;16.50;99.90;;;;;;5094418;28;19908;-70
2022/08/25 01:35:54;;;;;;;;;;;16.70;99.90;;;;;;5094546;28;19912;-70
2022/08/25 01:38:20;;;;;;;;;;;16.70;99.90;;;;;;5094208;28;20433;-70
2022/08/25 01:40:47;;;;;;;;;;;16.80;99.90;;;;;;5094336;28;19908;-70
2022/08/25 01:43:14;;;;;;;;;;;17.00;99.90;;;;;;5094287;28;19908;-68
2022/08/25 01:45:42;;;;;;;;;;;17.00;99.50;;;;;;5094138;28;19920;-68
2022/08/25 01:48:10;;;;;;;;;;;17.00;99.80;;;;;;5093929;28;19987;-69
2022/08/25 01:50:37;;;;;;;;;;;17.10;99.90;;;;;;5094210;28;19908;-69
2022/08/25 01:53:07;;;;;;;;;;;17.10;99.90;;;;;;5094230;28;19923;-66
2022/08/25 01:55:50;;;;;;;;;;;17.00;99.80;;;;;;5094038;28;20003;-67
2022/08/25 01:58:20;;;;;;;;;;;17.00;99.60;;;;;;5093914;28;19908;-67
2022/08/25 02:00:48;;;;;;;;;;;16.90;99.70;;;;;;5094051;28;19909;-68
2022/08/25 02:03:15;;;;;;;;;;;16.80;99.80;;;;;;5093605;28;19931;-68
2022/08/25 02:05:42;;;;;;;;;;;16.90;99.90;;;;;;5093697;28;19916;-68
2022/08/25 02:08:08;;;;;;;;;;;16.90;99.00;;;;;;5093604;28;19995;-68
2022/08/25 02:10:35;;;;;;;;;;;16.80;99.20;;;;;;5093937;28;19930;-68
2022/08/25 02:13:02;;;;;;;;;;;16.90;99.70;;;;;;5093920;28;20255;-66
2022/08/25 02:15:28;;;;;;;;;;;16.80;99.90;;;;;;5093962;28;20006;-68
2022/08/25 02:17:56;;;;;;;;;;;16.70;99.90;;;;;;5093621;28;19908;-66
2022/08/25 02:20:23;;;;;;;;;;;16.70;99.90;;;;;;5093464;28;19908;-67
2022/08/25 02:22:52;;;;;;;;;;;16.50;99.90;;;;;;5093726;28;20313;-68
2022/08/25 02:25:19;;;;;;;;;;;16.50;99.90;;;;;;5093588;28;19916;-68
2022/08/25 02:27:46;;;;;;;;;;;16.40;99.90;;;;;;5093787;28;19912;-68
2022/08/25 02:30:14;;;;;;;;;;;16.40;99.90;;;;;;5093446;28;19912;-68
2022/08/25 02:32:41;;;;;;;;;;;16.30;99.90;;;;;;5093477;28;20401;-68
2022/08/25 02:35:08;;;;;;;;;;;16.20;99.90;;;;;;5093467;28;19908;-68
2022/08/25 02:37:35;;;;;;;;;;;16.10;99.90;;;;;;5093382;28;20347;-68
2022/08/25 02:40:03;;;;;;;;;;;16.00;99.90;;;;;;5093062;28;19908;-69
2022/08/25 02:42:30;;;;;;;;;;;16.00;99.90;;;;;;5093719;28;19914;-69
2022/08/25 02:44:57;;;;;;;;;;;16.00;99.90;;;;;;5093195;28;19927;-68
2022/08/25 02:47:24;;;;;;;;;;;16.00;99.90;;;;;;5093143;28;20003;-69
2022/08/25 02:49:51;;;;;;;;;;;16.00;99.90;;;;;;5093270;28;20375;-68
2022/08/25 02:52:19;;;;;;;;;;;15.90;99.90;;;;;;5092953;28;20003;-69
2022/08/25 02:54:45;;;;;;;;;;;16.00;99.90;;;;;;5093263;28;20307;-68
2022/08/25 02:57:13;;;;;;;;;;;16.00;99.90;;;;;;5093067;28;19912;-68
2022/08/25 02:59:40;;;;;;;;;;;16.00;99.90;;;;;;5093191;28;19908;-67
2022/08/25 03:02:07;;;;;;;;;;;16.10;99.90;;;;;;5092796;28;20277;-68
2022/08/25 03:04:33;;;;;;;;;;;16.10;99.90;;;;;;5093147;28;19920;-69
2022/08/25 03:07:00;;;;;;;;;;;16.20;99.90;;;;;;5093190;28;20275;-68
2022/08/25 03:09:27;;;;;;;;;;;16.20;99.90;;;;;;5093186;28;19908;-68
2022/08/25 03:11:53;;;;;;;;;;;16.30;99.90;;;;;;5093172;28;19996;-68
2022/08/25 03:14:20;;;;;;;;;;;16.20;99.90;;;;;;5092915;28;19909;-68
2022/08/25 03:16:47;;;;;;;;;;;16.20;99.90;;;;;;5095323;28;19912;-67
2022/08/25 03:19:14;;;;;;;;;;;16.20;99.90;;;;;;5097089;28;19923;-68
2022/08/25 03:21:40;;;;;;;;;;;16.10;99.90;;;;;;5096978;28;20278;-67
2022/08/25 03:24:07;;;;;;;;;;;16.00;99.90;;;;;;5096772;28;19908;-69
2022/08/25 03:26:52;;;;;;;;;;;15.90;99.90;;;;;;5096934;28;19962;-68
2022/08/25 03:29:20;;;;;;;;;;;15.80;99.90;;;;;;5097042;28;20006;-68
2022/08/25 03:31:46;;;;;;;;;;;15.80;99.90;;;;;;5096602;28;19908;-68
2022/08/25 03:34:15;;;;;;;;;;;15.70;99.90;;;;;;5096489;28;20383;-68
2022/08/25 03:36:43;;;;;;;;;;;15.60;99.90;;;;;;5096691;28;20362;-67
2022/08/25 03:39:10;;;;;;;;;;;15.70;99.90;;;;;;5096777;28;19915;-67
2022/08/25 03:41:37;;;;;;;;;;;15.80;99.90;;;;;;5096625;28;20370;-67
2022/08/25 03:44:04;;;;;;;;;;;15.80;99.90;;;;;;5096259;28;19912;-67
2022/08/25 03:46:33;;;;;;;;;;;15.70;99.90;;;;;;5096184;28;19961;-66
2022/08/25 03:49:00;;;;;;;;;;;15.70;99.90;;;;;;5096480;28;19908;-67
2022/08/25 03:51:35;;;;;;;;;;;15.70;99.90;;;;;;5096483;28;20385;-67
2022/08/25 03:54:03;;;;;;;;;;;15.70;99.90;;;;;;5096096;28;19916;-67
2022/08/25 03:56:30;;;;;;;;;;;15.70;99.90;;;;;;5096552;28;19915;-67
2022/08/25 03:58:56;;;;;;;;;;;15.70;99.90;;;;;;5096300;28;19914;-66
2022/08/25 04:01:24;;;;;;;;;;;15.70;99.90;;;;;;5096054;28;19984;-68
2022/08/25 04:03:51;;;;;;;;;;;15.60;99.90;;;;;;5096283;28;19998;-68
2022/08/25 04:06:18;;;;;;;;;;;15.60;99.90;;;;;;5095795;28;19916;-67
2022/08/25 04:08:45;;;;;;;;;;;15.60;99.90;;;;;;5096064;28;19919;-68
2022/08/25 04:11:14;;;;;;;;;;;15.60;99.90;;;;;;5096008;28;19908;-68
2022/08/25 04:13:41;;;;;;;;;;;15.60;99.90;;;;;;5096134;28;20472;-68
2022/08/25 04:16:12;;;;;;;;;;;15.70;99.90;;;;;;5095626;28;19908;-68
2022/08/25 04:18:40;;;;;;;;;;;15.70;99.90;;;;;;5096015;28;20006;-69
2022/08/25 04:21:10;;;;;;;;;;;15.70;99.90;;;;;;5095924;28;19908;-68
2022/08/25 04:23:39;;;;;;;;;;;15.80;99.90;;;;;;5095918;28;20256;-68
2022/08/25 04:26:13;;;;;;;;;;;15.80;99.90;;;;;;5095565;28;20424;-68
2022/08/25 04:28:40;;;;;;;;;;;15.80;99.90;;;;;;5095486;28;19951;-69
2022/08/25 04:31:08;;;;;;;;;;;15.80;99.90;;;;;;5095557;28;20366;-68
2022/08/25 04:33:35;;;;;;;;;;;15.80;99.90;;;;;;5095857;28;19908;-68
2022/08/25 04:36:03;;;;;;;;;;;15.80;99.90;;;;;;5095405;28;20282;-68
2022/08/25 04:38:31;;;;;;;;;;;15.80;99.90;;;;;;5095556;28;19908;-68
2022/08/25 04:40:58;;;;;;;;;;;15.80;99.90;;;;;;5095373;28;19912;-68
2022/08/25 04:43:25;;;;;;;;;;;15.80;99.90;;;;;;5095398;28;20258;-68
2022/08/25 04:45:52;;;;;;;;;;;15.70;99.90;;;;;;5095113;28;19931;-68
2022/08/25 04:48:19;;;;;;;;;;;15.70;99.90;;;;;;5095098;28;19908;-68
2022/08/25 04:50:46;;;;;;;;;;;15.60;99.90;;;;;;5065020;28;20544;-69
2022/08/25 04:53:13;;;;;;;;;;;15.70;99.90;;;;;;5054340;28;19916;-68
2022/08/25 04:55:41;;;;;;;;;;;15.60;99.90;;;;;;5085122;28;19908;-68
2022/08/25 04:58:08;;;;;;;;;;;15.60;99.90;;;;;;5095007;28;20006;-68
2022/08/25 05:00:35;;;;;;;;;;;15.60;99.80;;;;;;5095031;28;19919;-68
2022/08/25 05:03:02;;;;;;;;;;;15.60;99.70;;;;;;5095099;28;19908;-68
2022/08/25 05:05:29;;;;;;;;;;;15.60;99.90;;;;;;5094973;28;19916;-67
2022/08/25 05:07:56;;;;;;;;;;;15.60;99.90;;;;;;5094930;28;19909;-68
2022/08/25 05:10:23;;;;;;;;;;;15.60;99.90;;;;;;5094583;28;19912;-68
2022/08/25 05:12:50;;;;;;;;;;;15.50;99.90;;;;;;5094762;28;20281;-67
2022/08/25 05:18:01;;;;;;;;;;;15.50;99.90;;;;;;5094810;28;19965;-67
2022/08/25 05:20:29;;;;;;;;;;;15.50;99.90;;;;;;5094618;28;19908;-67
2022/08/25 05:22:57;;;;;;;;;;;15.50;99.90;;;;;;5094628;28;19995;-67
2022/08/25 05:25:24;;;;;;;;;;;15.50;99.90;;;;;;5094645;28;20451;-67
2022/08/25 05:27:51;;;;;;;;;;;15.50;99.90;;;;;;5094560;28;19954;-68
2022/08/25 05:30:17;;;;;;;;;;;15.50;99.90;;;;;;5094122;28;19994;-67
2022/08/25 05:32:44;;;;;;;;;;;15.50;99.90;;;;;;5094483;28;19908;-67
2022/08/25 05:35:11;;;;;;;;;;;15.50;99.90;;;;;;5094708;28;19912;-68
2022/08/25 05:37:38;;;;;;;;;;;15.50;99.90;;;;;;5094437;28;20351;-67
2022/08/25 05:40:05;;;;;;;;;;;15.50;99.90;;;;;;5093573;28;20282;-67
2022/08/25 05:42:32;;;;;;;;;;;15.50;99.90;;;;;;5094458;28;19915;-67
2022/08/25 05:44:59;;;;;;;;;;;15.50;99.90;;;;;;5093851;28;19956;-67
2022/08/25 05:47:26;;;;;;;;;;;15.50;99.90;;;;;;5094135;28;20359;-67
2022/08/25 05:49:53;;;;;;;;;;;15.50;99.90;;;;;;5094226;28;19931;-67
2022/08/25 05:52:20;;;;;;;;;;;15.40;99.90;;;;;;5093933;28;19919;-67
2022/08/25 05:54:46;;;;;;;;;;;15.50;99.90;;;;;;5094042;28;20294;-67
2022/08/25 05:57:13;;;;;;;;;;;15.50;99.90;;;;;;5093985;28;19949;-67
2022/08/25 05:59:40;;;;;;;;;;;15.50;99.90;;;;;;5092625;28;20324;-68
2022/08/25 06:04:52;;;;;;;;;;;15.50;99.90;;;;;;5093721;28;19974;-67
2022/08/25 06:07:19;;;;;;;;;;;15.50;99.90;;;;;;5093909;28;20274;-69
2022/08/25 06:09:47;;;;;;;;;;;15.50;99.90;;;;;;5093524;28;19916;-68
2022/08/25 06:12:14;;;;;;;;;;;15.50;99.90;;;;;;5093565;28;20270;-68
2022/08/25 06:14:41;;;;;;;;;;;15.50;99.90;;;;;;5093659;28;19915;-68
2022/08/25 06:17:08;;;;;;;;;;;15.50;99.90;;;;;;5093631;28;19908;-68
2022/08/25 06:19:34;;;;;;;;;;;15.50;99.90;;;;;;5093665;28;19986;-69
2022/08/25 06:22:01;;;;;;;;;;;15.50;99.90;;;;;;5093549;28;19908;-69
2022/08/25 06:24:28;;;;;;;;;;;15.50;99.90;;;;;;5093726;28;19915;-69
2022/08/25 06:26:55;;;;;;;;;;;15.50;99.90;;;;;;5093748;28;19908;-68
2022/08/25 06:29:23;;;;;;;;;;;15.40;99.90;;;;;;5093638;28;20256;-68
2022/08/25 06:31:50;;;;;;;;;;;15.50;99.90;;;;;;5093552;28;19960;-68
2022/08/25 06:34:17;;;;;;;;;;;15.50;99.90;;;;;;5093284;28;19915;-68
2022/08/25 06:36:43;;;;;;;;;;;15.50;99.90;;;;;;5093540;28;20270;-68
2022/08/25 06:39:10;;;;;;;;;;;15.40;99.90;;;;;;5093534;28;19939;-69
2022/08/25 06:41:37;;;;;;;;;;;15.50;99.90;;;;;;5093372;28;20355;-68
2022/08/25 06:44:04;;;;;;;;;;;15.40;99.90;;;;;;5093208;28;19943;-69
2022/08/25 06:46:31;;;;;;;;;;;15.40;99.90;;;;;;5092969;28;20110;-67
2022/08/25 06:48:59;;;;;;;;;;;15.40;99.90;;;;;;5093394;28;20007;-68
2022/08/25 06:51:26;;;;;;;;;;;15.40;99.90;;;;;;5093974;28;20328;-69
2022/08/25 06:53:53;;;;;;;;;;;15.50;99.90;;;;;;5095367;28;19909;-69
2022/08/25 06:56:20;;;;;;;;;;;15.50;99.90;;;;;;5094044;28;19918;-69
2022/08/25 06:58:47;;;;;;;;;;;15.50;99.90;;;;;;5095465;28;19953;-68
2022/08/25 07:01:22;;;;;;;;;;;15.50;99.90;;;;;;5095229;28;19984;-68
2022/08/25 07:03:49;;;;;;;;;;;15.40;99.90;;;;;;5094982;28;19912;-69
2022/08/25 07:06:20;;;;;;;;;;;15.50;99.90;;;;;;5094974;28;20031;-69
2022/08/25 07:08:47;;;;;;;;;;;15.40;99.90;;;;;;5094986;28;19954;-68
2022/08/25 07:11:14;;;;;;;;;;;15.40;99.90;;;;;;5095097;28;19923;-68
2022/08/25 07:13:41;;;;;;;;;;;15.40;99.90;;;;;;5095036;28;19916;-68
2022/08/25 07:16:10;;;;;;;;;;;15.40;99.90;;;;;;5094928;28;19944;-68
2022/08/25 07:18:36;;;;;;;;;;;15.40;99.90;;;;;;5094436;28;19999;-69
2022/08/25 07:21:03;;;;;;;;;;;15.30;99.90;;;;;;5094777;28;19908;-68
2022/08/25 07:23:30;;;;;;;;;;;15.30;99.90;;;;;;5094790;28;19908;-69
2022/08/25 07:26:06;;;;;;;;;;;15.30;99.90;;;;;;5094703;28;20362;-69
2022/08/25 07:28:32;;;;;;;;;;;15.20;99.90;;;;;;5094757;28;20413;-68
2022/08/25 07:31:00;;;;;;;;;;;15.20;99.90;;;;;;5094230;28;20298;-69
2022/08/25 07:33:27;;;;;;;;;;;15.10;99.90;;;;;;5094695;28;19931;-68
2022/08/25 07:35:53;;;;;;;;;;;15.20;99.90;;;;;;5094558;28;20007;-69
2022/08/25 07:38:20;;;;;;;;;;;15.10;99.90;;;;;;5094473;28;19912;-68
2022/08/25 07:40:53;;;;;;;;;;;15.10;99.90;;;;;;5094529;28;19913;-68
2022/08/25 07:43:21;;;;;;;;;;;15.00;99.90;;;;;;5094178;28;19951;-68
2022/08/25 07:45:48;;;;;;;;;;;14.90;99.90;;;;;;5094102;28;19924;-68
2022/08/25 07:48:15;;;;;;;;;;;14.80;99.90;;;;;;5094118;28;19916;-68
2022/08/25 07:50:44;;;;;;;;;;;14.70;99.90;;;;;;5094302;28;19908;-70
2022/08/25 07:53:11;;;;;;;;;;;14.60;99.90;;;;;;5094204;28;19912;-68
2022/08/25 07:55:38;;;;;;;;;;;14.60;99.90;;;;;;5094351;28;19969;-69
2022/08/25 07:58:06;;;;;;;;;;;14.60;99.90;;;;;;5093572;28;19918;-70
2022/08/25 08:00:35;;;;;;;;;;;14.50;99.90;;;;;;5094102;28;19913;-69
2022/08/25 08:03:06;;;;;;;;;;;14.60;99.90;;;;;;5093444;28;19919;-68
2022/08/25 08:05:33;;;;;;;;;;;14.60;99.90;;;;;;5094150;28;20007;-70
2022/08/25 08:08:01;;;;;;;;;;;14.60;99.90;;;;;;5094170;28;19972;-68
2022/08/25 08:10:28;;;;;;;;;;;14.60;99.90;;;;;;5093742;28;20247;-70
2022/08/25 08:12:54;;;;;;;;;;;14.60;99.90;;;;;;5093967;28;20004;-69
2022/08/25 08:15:21;;;;;;;;;;;14.60;99.90;;;;;;5093672;28;19915;-69
2022/08/25 08:17:48;;;;;;;;;;;14.60;99.90;;;;;;5093856;28;19908;-68
2022/08/25 08:20:16;;;;;;;;;;;14.60;99.90;;;;;;5093545;28;20390;-68
2022/08/25 08:22:44;;;;;;;;;;;14.50;99.90;;;;;;5093448;28;19915;-69
2022/08/25 08:25:11;;;;;;;;;;;14.50;99.90;;;;;;5093663;28;19923;-69
2022/08/25 08:27:38;;;;;;;;;;;14.50;99.90;;;;;;5093703;28;20317;-69
2022/08/25 08:30:06;;;;;;;;;;;14.50;99.90;;;;;;5093299;28;19908;-69
2022/08/25 08:32:33;;;;;;;;;;;14.50;99.90;;;;;;5093536;28;20332;-69
2022/08/25 08:34:59;;;;;;;;;;;14.40;99.90;;;;;;5093498;28;19970;-69
2022/08/25 08:37:26;;;;;;;;;;;14.40;99.90;;;;;;5093203;28;19993;-69
2022/08/25 08:39:53;;;;;;;;;;;14.40;99.90;;;;;;5093325;28;19912;-68
2022/08/25 08:42:38;;;;;;;;;;;14.40;99.90;;;;;;5093048;28;20941;-69
2022/08/25 08:45:23;;;;;;;;;;;14.40;99.90;;;;;;5092907;28;20278;-67
2022/08/25 08:48:09;;;;;;;;;;;14.40;99.90;;;;;;5093132;28;20316;-67
2022/08/25 08:50:39;;;;;;;;;;;14.40;99.90;;;;;;5071126;28;20333;-67
2022/08/25 08:53:24;;;;;;;;;;;14.40;99.90;;;;;;5093152;28;20433;-69
2022/08/25 08:55:58;;;;;;;;;;;14.30;99.90;;;;;;5093047;28;20456;-69
2022/08/25 08:58:34;;;;;;;;;;;14.30;99.90;;;;;;5092895;28;19987;-69
2022/08/25 09:01:01;;;;;;;;;;;14.30;99.90;;;;;;5092901;28;19944;-69
2022/08/25 09:03:27;;;;;;;;;;;14.30;99.90;;;;;;5094430;28;19915;-67
2022/08/25 09:05:55;;;;;;;;;;;14.30;99.90;;;;;;5094929;28;20011;-67
2022/08/25 09:08:22;;;;;;;;;;;14.20;99.90;;;;;;5093473;28;19948;-67
2022/08/25 09:11:12;;;;;;;;;;;14.30;99.90;;;;;;5094810;28;19908;-68
2022/08/25 09:13:39;;;;;;;;;;;14.20;99.90;;;;;;5093652;28;19908;-68
2022/08/25 09:19:19;;;;;;;;;;;14.00;99.90;;;;;;5094792;28;19916;-69
2022/08/25 09:21:47;;;;;;;;;;;13.90;99.90;;;;;;5088935;28;20377;-69
2022/08/25 09:24:30;;;;;;;;;;;13.90;99.90;;;;;;5094390;28;19987;-70
2022/08/25 09:27:12;;;;;;;;;;;13.90;99.90;;;;;;5094486;28;19959;-67
2022/08/25 09:29:47;;;;;;;;;;;13.90;99.90;;;;;;5094372;28;19919;-68
2022/08/25 09:32:14;;;;;;;;;;;13.90;99.90;;;;;;5070170;28;20390;-68
2022/08/25 09:34:40;;;;;;;;;;;13.90;99.90;;;;;;5054064;28;19916;-68
2022/08/25 09:37:07;;;;;;;;;;;13.90;99.90;;;;;;5054376;28;19916;-67
2022/08/25 09:39:35;;;;;;;;;;;13.90;99.90;;;;;;5054243;28;20419;-68
2022/08/25 09:42:02;;;;;;;;;;;13.90;99.90;;;;;;5053959;28;19915;-68
2022/08/25 09:44:28;;;;;;;;;;;14.00;99.90;;;;;;5053892;28;19915;-69
2022/08/25 09:47:00;;;;;;;;;;;14.00;99.90;;;;;;5053223;28;19927;-69
2022/08/25 09:49:38;;;;;;;;;;;13.90;99.90;;;;;;5053984;28;19915;-68
2022/08/25 09:52:22;;;;;;;;;;;13.90;99.90;;;;;;5053632;28;19917;-68
2022/08/25 09:54:50;;;;;;;;;;;13.90;99.90;;;;;;5053911;28;19909;-67
2022/08/25 09:57:31;;;;;;;;;;;13.90;99.90;;;;;;5053741;28;19909;-67
2022/08/25 10:00:09;;;;;;;;;;;13.80;99.90;;;;;;5053707;28;19954;-66
2022/08/25 10:02:36;;;;;;;;;;;13.70;99.90;;;;;;5053124;28;19908;-67
2022/08/25 10:05:20;;;;;;;;;;;13.50;99.90;;;;;;5053670;28;19952;-68
2022/08/25 10:07:52;;;;;;;;;;;13.10;99.90;;;;;;5053548;28;19954;-68
2022/08/25 10:10:41;;;;;;;;;;;12.70;99.90;;;;;;5053634;28;19909;-67
2022/08/25 10:13:18;;;;;;;;;;;12.50;99.90;;;;;;5050556;28;19908;-67
2022/08/25 10:15:45;;;;;;;;;;;12.30;99.90;;;;;;5053013;28;20102;-67
2022/08/25 10:18:24;;;;;;;;;;;12.30;99.90;;;;;;5053122;28;19916;-67
2022/08/25 10:21:00;;;;;;;;;;;12.20;99.90;;;;;;5053373;28;20352;-68
2022/08/25 10:23:27;;;;;;;;;;;12.00;99.90;;;;;;5053464;28;19909;-69
2022/08/25 10:25:54;;;;;;;;;;;12.00;99.90;;;;;;5052984;28;20001;-68
2022/08/25 10:28:38;;;;;;;;;;;12.00;99.90;;;;;;5053144;28;20514;-67
2022/08/25 10:31:22;;;;;;;;;;;12.00;99.90;;;;;;5052843;28;20383;-68
2022/08/25 10:34:12;;;;;;;;;;;12.00;99.90;;;;;;5053338;28;19975;-68
2022/08/25 10:36:47;;;;;;;;;;;11.90;99.90;;;;;;5050470;28;19909;-68
2022/08/25 10:39:25;;;;;;;;;;;12.00;99.90;;;;;;5053281;28;19924;-67
2022/08/25 10:42:03;;;;;;;;;;;12.00;99.90;;;;;;5053493;28;20003;-68
2022/08/25 10:47:29;;;;;;;;;;;12.20;99.90;;;;;;5052930;28;19927;-67
2022/08/25 10:50:17;;;;;;;;;;;12.20;99.90;;;;;;5051336;28;20673;-67
2022/08/25 10:53:02;;;;;;;;;;;12.20;99.90;;;;;;5053137;28;19913;-67
2022/08/25 10:55:43;;;;;;;;;;;12.30;99.90;;;;;;5053054;28;19915;-67
2022/08/25 10:58:40;;;;;;;;;;;12.30;99.90;;;;;;5052723;28;19908;-67
2022/08/25 11:01:07;;;;;;;;;;;12.40;99.90;;;;;;5052646;28;19909;-68
2022/08/25 11:04:08;;;;;;;;;;;12.30;99.90;;;;;;5053025;28;19913;-68
2022/08/25 11:06:38;;;;;;;;;;;12.40;99.90;;;;;;5030851;28;20410;-67
2022/08/25 11:09:07;;;;;;;;;;;12.40;99.90;;;;;;5048966;28;20167;-67
2022/08/25 11:11:34;;;;;;;;;;;12.50;99.90;;;;;;5053409;28;20278;-67
2022/08/25 11:14:05;;;;;;;;;;;12.50;99.90;;;;;;5052963;28;20421;-67
2022/08/25 11:16:44;;;;;;;;;;;12.50;99.90;;;;;;5052424;28;19909;-67
2022/08/25 11:19:34;;;;;;;;;;;12.40;99.90;;;;;;5053018;28;19916;-67
2022/08/25 11:22:00;;;;;;;;;;;12.30;99.90;;;;;;5049862;28;20352;-67
2022/08/25 11:24:36;;;;;;;;;;;12.40;99.90;;;;;;5052776;28;19916;-67
2022/08/25 11:27:04;;;;;;;;;;;12.30;99.90;;;;;;5052963;28;20283;-67
2022/08/25 11:29:35;;;;;;;;;;;12.40;99.90;;;;;;5052547;28;19916;-67
2022/08/25 11:32:03;;;;;;;;;;;12.30;99.90;;;;;;5052255;28;19908;-67
2022/08/25 11:34:34;;;;;;;;;;;12.30;99.90;;;;;;5052714;28;19960;-67
2022/08/25 11:37:18;;;;;;;;;;;12.30;99.90;;;;;;5054064;28;20344;-67
2022/08/25 11:40:00;;;;;;;;;;;12.20;99.90;;;;;;5056469;28;20322;-67
2022/08/25 11:42:42;;;;;;;;;;;12.20;99.90;;;;;;5056444;28;19908;-67
2022/08/25 11:45:19;;;;;;;;;;;12.20;99.90;;;;;;5055524;28;19921;-68
2022/08/25 11:47:49;;;;;;;;;;;12.20;99.90;;;;;;5056311;28;19916;-67
2022/08/25 11:50:25;;;;;;;;;;;12.10;99.90;;;;;;5056177;28;19913;-67
2022/08/25 11:53:11;;;;;;;;;;;12.10;99.90;;;;;;5056210;28;19951;-67
2022/08/25 11:55:38;;;;;;;;;;;12.10;99.90;;;;;;5052111;28;19952;-67
2022/08/25 11:58:22;;;;;;;;;;;12.10;99.90;;;;;;5055836;28;19908;-68
2022/08/25 12:00:49;;;;;;;;;;;12.10;99.90;;;;;;5055534;28;20059;-67
2022/08/25 12:03:32;;;;;;;;;;;12.10;99.90;;;;;;5056100;28;20359;-67
2022/08/25 12:06:14;;;;;;;;;;;12.20;99.90;;;;;;5055965;28;20426;-67
2022/08/25 12:08:50;;;;;;;;;;;12.20;99.90;;;;;;5056016;28;20446;-68
2022/08/25 12:11:35;;;;;;;;;;;12.20;99.90;;;;;;5055835;28;20038;-68
2022/08/25 12:14:27;;;;;;;;;;;12.20;99.90;;;;;;5055605;28;19954;-67
2022/08/25 12:16:54;;;;;;;;;;;12.10;99.90;;;;;;5054597;28;20286;-67
2022/08/25 12:19:48;;;;;;;;;;;12.10;99.90;;;;;;5055946;28;19912;-68
2022/08/25 12:22:25;;;;;;;;;;;12.10;99.90;;;;;;5055460;28;19959;-67
2022/08/25 12:24:58;;;;;;;;;;;12.10;99.90;;;;;;5055652;28;19917;-67
2022/08/25 12:27:27;;;;;;;;;;;12.10;99.90;;;;;;5055611;28;19999;-68
2022/08/25 12:30:00;;;;;;;;;;;12.10;99.90;;;;;;5054938;28;19912;-68
2022/08/25 12:32:45;;;;;;;;;;;12.10;99.90;;;;;;5055644;28;20336;-67
2022/08/25 12:35:31;;;;;;;;;;;12.10;99.90;;;;;;5055571;28;20260;-67
2022/08/25 12:38:00;;;;;;;;;;;12.10;99.90;;;;;;5055413;28;19909;-67
2022/08/25 12:40:37;;;;;;;;;;;12.00;99.90;;;;;;5055469;28;19916;-67
2022/08/25 12:43:09;;;;;;;;;;;12.00;99.90;;;;;;5055262;28;19919;-67
2022/08/25 12:45:37;;;;;;;;;;;12.00;99.90;;;;;;5054560;28;20386;-67
2022/08/25 12:48:22;;;;;;;;;;;12.00;99.90;;;;;;5054789;28;19916;-68
2022/08/25 12:50:56;;;;;;;;;;;11.90;99.90;;;;;;5055136;28;19909;-68
2022/08/25 12:53:25;;;;;;;;;;;11.90;99.90;;;;;;5055134;28;19909;-68
2022/08/25 12:55:56;;;;;;;;;;;11.80;99.90;;;;;;5055061;28;19908;-68
2022/08/25 12:58:28;;;;;;;;;;;11.80;99.90;;;;;;5054645;28;20318;-69
2022/08/25 13:01:09;;;;;;;;;;;11.80;99.90;;;;;;5054389;28;19913;-68
2022/08/25 13:03:54;;;;;;;;;;;11.80;99.90;;;;;;5054988;28;20286;-68
2022/08/25 13:06:24;;;;;;;;;;;11.80;99.90;;;;;;5054631;28;20386;-68
2022/08/25 13:09:09;;;;;;;;;;;11.70;99.90;;;;;;5054827;28;20367;-69
2022/08/25 13:12:01;;;;;;;;;;;11.80;99.90;;;;;;5054822;28;20375;-68
2022/08/25 13:14:39;;;;;;;;;;;11.70;99.90;;;;;;5053056;28;19954;-68
2022/08/25 13:17:07;;;;;;;;;;;11.80;99.90;;;;;;5054713;28;20355;-68
2022/08/25 13:19:33;;;;;;;;;;;11.80;99.90;;;;;;5054660;28;19920;-68
2022/08/25 13:22:02;;;;;;;;;;;11.70;99.90;;;;;;5054686;28;20003;-69
2022/08/25 13:24:34;;;;;;;;;;;11.70;99.90;;;;;;5054597;28;20012;-68
2022/08/25 13:27:05;;;;;;;;;;;11.70;99.90;;;;;;5054529;28;19916;-68
2022/08/25 13:29:32;;;;;;;;;;;11.80;99.90;;;;;;5054239;28;19949;-69
2022/08/25 13:32:02;;;;;;;;;;;11.80;99.90;;;;;;5054287;28;20382;-68
2022/08/25 13:34:31;;;;;;;;;;;11.80;99.90;;;;;;5054360;28;19909;-68
2022/08/25 13:39:49;;;;;;;;;;;11.80;99.90;;;;;;5054632;28;19916;-68
2022/08/25 13:42:16;;;;;;;;;;;11.70;99.90;;;;;;5053770;28;20316;-68
2022/08/25 13:44:43;;;;;;;;;;;11.70;99.90;;;;;;5053861;28;19962;-68
2022/08/25 13:47:11;;;;;;;;;;;11.70;99.90;;;;;;5054058;28;19909;-68
2022/08/25 13:49:39;;;;;;;;;;;11.60;99.90;;;;;;5054248;28;19908;-68
2022/08/25 13:52:06;;;;;;;;;;;11.70;99.90;;;;;;5053858;28;19959;-68
2022/08/25 13:54:38;;;;;;;;;;;11.70;99.90;;;;;;5053983;28;19915;-69
2022/08/25 13:57:07;;;;;;;;;;;11.60;99.90;;;;;;5053738;28;19909;-68
2022/08/25 13:59:36;;;;;;;;;;;11.60;99.90;;;;;;5053360;28;19959;-68
2022/08/25 14:02:03;;;;;;;;;;;11.70;99.90;;;;;;5053663;28;19909;-69
2022/08/25 14:04:41;;;;;;;;;;;11.80;99.90;;;;;;5053795;28;20370;-68
2022/08/25 14:07:12;;;;;;;;;;;11.80;99.90;;;;;;5053812;28;20008;-68
2022/08/25 14:09:50;;;;;;;;;;;11.80;99.90;;;;;;5053698;28;19909;-68
2022/08/25 14:12:30;;;;;;;;;;;11.80;99.90;;;;;;5053322;28;19909;-68
2022/08/25 14:15:01;;;;;;;;;;;11.70;99.90;;;;;;5053528;28;20264;-68
2022/08/25 14:17:27;;;;;;;;;;;11.70;99.90;;;;;;5053570;28;19996;-68
2022/08/25 14:19:54;;;;;;;;;;;11.60;99.90;;;;;;5053291;28;19913;-69
2022/08/25 14:22:21;;;;;;;;;;;11.60;99.90;;;;;;5053278;28;20272;-69
2022/08/25 14:24:48;;;;;;;;;;;11.60;99.90;;;;;;5053218;28;19913;-69
2022/08/25 14:27:14;;;;;;;;;;;11.60;99.90;;;;;;5053245;28;19913;-69
2022/08/25 14:29:41;;;;;;;;;;;11.60;99.90;;;;;;5053331;28;19924;-69
2022/08/25 14:32:08;;;;;;;;;;;11.60;99.90;;;;;;5053236;28;19908;-69
2022/08/25 14:34:35;;;;;;;;;;;11.60;99.90;;;;;;5053401;28;20382;-69
2022/08/25 14:37:22;;;;;;;;;;;11.50;99.90;;;;;;5053347;28;19909;-69
2022/08/25 14:39:49;;;;;;;;;;;11.50;99.90;;;;;;5053192;28;19995;-68
2022/08/25 14:42:15;;;;;;;;;;;11.60;99.90;;;;;;5053003;28;20347;-69
2022/08/25 14:44:42;;;;;;;;;;;11.60;99.90;;;;;;5053047;28;20260;-69
2022/08/25 14:47:09;;;;;;;;;;;11.60;99.90;;;;;;5053345;28;19916;-69
2022/08/25 14:49:39;;;;;;;;;;;11.60;99.90;;;;;;5053166;28;19932;-68